< Cyclone 201216 2012 Season Cyclone 201303 >
Cyclone 201217 (noname)
General InformationTrack Information on Google MapsList of All Images || ResourceGoogle EarthGE AnimationAtom FeedGeoJSON
Detalied Best Track (Time Zone = UTC)
Year Month Day Hour Lat. Long. Pressure (hPa) Wind (kt) Class Image Chart
2012 3 11 00 -10.1 131.7 1004 15 2 Image --
2012 3 11 06 -10.2 131.1 1002 15 2 Image --
2012 3 11 12 -10.2 130.4 1003 20 2 Image --
2012 3 11 18 -10.3 129.8 1001 20 2 Image --
2012 3 12 00 -10.4 129.2 1001 25 2 Image --
2012 3 12 06 -10.8 128.6 1000 25 2 Image --
2012 3 12 12 -11.2 128.1 1000 25 2 Image --
2012 3 12 18 -11.6 127.9 1000 25 2 Image --
2012 3 13 00 -12.1 127.9 1000 25 2 Image --
2012 3 13 06 -12.4 128.0 998 25 2 Image --
2012 3 13 12 -13.0 128.1 997 30 2 Image --
2012 3 13 18 -13.6 128.2 997 30 2 Image --
2012 3 14 00 -14.3 128.4 997 30 2 Image --
2012 3 14 06 -14.7 129.0 996 30 2 Image --
2012 3 14 12 -14.9 130.0 998 25 2 Image --
2012 3 14 18 -15.6 131.4 998 15 2 Image --
2012 3 15 00 -16.4 132.7 1000 15 2 Image --
2012 3 15 06 -16.7 133.5 997 15 2 Image --
2012 3 15 12 -16.9 134.2 999 15 2 Image --
2012 3 15 18 -16.9 135.1 998 15 2 Image --
2012 3 16 00 -16.9 136.0 1000 15 2 Image --
2012 3 16 06 -17.2 137.5 997 15 2 Image --
2012 3 16 12 -17.0 139.3 998 20 2 Image --
2012 3 16 18 -16.6 140.4 996 25 2 Image --
2012 3 17 00 -16.7 141.4 997 25 2 Image --
2012 3 17 06 -16.8 141.4 995 25 2 Image --
2012 3 17 12 -16.9 141.3 996 25 2 Image --
2012 3 17 18 -16.9 141.0 996 25 2 Image --
2012 3 18 00 -16.6 140.8 996 25 2 Image --
2012 3 18 06 -16.7 140.8 993 30 2 Image --
2012 3 18 12 -16.7 140.9 994 30 2 Image --
2012 3 18 18 -16.9 141.0 994 25 2 Image --
2012 3 19 00 -17.0 141.1 994 25 2 Image --
2012 3 19 06 -17.1 141.2 994 25 2 Image --
2012 3 19 12 -18.0 141.4 995 20 2 Image --
2012 3 19 18 -18.7 141.8 995 15 2 Image --
2012 3 20 00 -19.7 142.1 996 15 2 Image --
2012 3 20 06 -20.4 142.5 994 15 2 Image --
2012 3 20 12 -21.0 142.8 996 15 2 Image --
2012 3 20 18 -21.7 143.6 996 15 2 Image --
2012 3 21 00 -22.5 144.5 997 15 2 Image --
2012 3 21 06 -22.7 145.7 996 10 2 Image --
2012 3 21 12 -22.4 147.1 998 10 2 Image --
< Cyclone 201216 2012 Season Cyclone 201303 >

Help